| time (UTC) | temp C | wind direction | speed KPH | gust KPH | rain 1hr cm | rain 24hr cm | rain mn cm | humidity % | barometer mb |
| 20260906114544 | 19 | 0 | 0.0 | 0.0 | 0.20 | 0.48 | 0.48 | 93 | 1016.7 |
| 20260906113050 | 18 | 0 | 0.0 | 0.0 | 0.36 | 0.48 | 0.48 | 93 | 1016.6 |
| 20260906111542 | 18 | 0 | 0.0 | 0.0 | 0.25 | 0.30 | 0.30 | 93 | 1016.4 |
| 20260906110047 | 18 | 0 | 0.0 | 0.0 | 0.28 | 0.28 | 0.28 | 93 | 1016.2 |
| 20260906104546 | 18 | 0 | 0.0 | 0.0 | 0.28 | 0.28 | 0.28 | 93 | 1016.1 |
| 20260906103052 | 18 | 0 | 0.0 | 0.0 | 0.10 | 0.10 | 0.10 | 93 | 1016.1 |
| 20260906101546 | 18 | 0 | 0.0 | 0.0 | 0.05 | 0.05 | 0.05 | 93 | 1015.8 |
| 20260906100048 | 18 | 0 | 0.0 | 0.0 | 0.00 | 0.00 | 0.00 | 93 | 1015.8 |
| 20260906094545 | 18 | 0 | 0.0 | 0.0 | 0.00 | 0.00 | 0.00 | 93 | 1015.6 |
| 20260906093055 | 18 | 0 | 0.0 | 0.0 | 0.00 | 0.00 | 0.00 | 92 | 1015.5 |
| 20260906091548 | 18 | 0 | 0.0 | 0.0 | 0.00 | 0.00 | 0.00 | 92 | 1015.5 |
| 20260906090046 | 18 | 0 | 0.0 | 0.0 | 0.00 | 0.00 | 0.00 | 92 | 1015.3 |
| 20260906084552 | 18 | 0 | 0.0 | 0.0 | 0.00 | 0.00 | 0.00 | 92 | 1015.5 |
| 20260906083051 | 18 | 0 | 0.0 | 0.0 | 0.00 | 0.00 | 0.00 | 92 | 1015.5 |
| 20260906081547 | 18 | 0 | 0.0 | 1.6 | 0.00 | 0.00 | 0.00 | 92 | 1015.5 |
| 20260906080046 | 18 | 0 | 0.0 | 0.0 | 0.00 | 0.00 | 0.00 | 92 | 1015.4 |
| 20260906074556 | 18 | 0 | 0.0 | 4.8 | 0.00 | 0.00 | 0.00 | 92 | 1015.5 |
| 20260906073051 | 18 | 0 | 0.0 | 0.0 | 0.00 | 0.00 | 0.00 | 92 | 1015.5 |
| 20260906071546 | 18 | 0 | 0.0 | 0.0 | 0.00 | 0.00 | 0.00 | 91 | 1015.6 |
| 20260906070051 | 18 | 0 | 0.0 | 0.0 | 0.00 | 0.00 | 0.00 | 91 | 1015.6 |
| 20260906064546 | 18 | 0 | 0.0 | 0.0 | 0.00 | 0.00 | 0.00 | 91 | 1015.5 |
| 20260906063047 | 18 | 0 | 0.0 | 0.0 | 0.00 | 0.00 | 0.00 | 91 | 1015.9 |
| 20260906061544 | 18 | 0 | 0.0 | 0.0 | 0.00 | 0.00 | 0.00 | 90 | 1016.1 |
| 20260906060059 | 19 | 0 | 0.0 | 0.0 | 0.00 | 0.00 | 0.00 | 90 | 1016.1 |
| 20260906054547 | 19 | 0 | 0.0 | 0.0 | 0.00 | 0.00 | 0.00 | 89 | 1016.2 |
| 20260906053043 | 19 | 0 | 0.0 | 0.0 | 0.00 | 0.00 | 0.00 | 89 | 1016.3 |
| 20260906051603 | 20 | 0 | 0.0 | 0.0 | 0.00 | 0.00 | 0.00 | 89 | 1016.1 |
| 20260906050053 | 20 | 0 | 0.0 | 0.0 | 0.00 | 0.00 | 0.00 | 89 | 1016.3 |
| 20260906044547 | 20 | 0 | 0.0 | 0.0 | 0.00 | 0.00 | 0.00 | 88 | 1016.1 |
| 20260906043043 | 20 | 0 | 0.0 | 0.0 | 0.00 | 0.00 | 0.00 | 88 | 1016.0 |
| 20260906041552 | 20 | 0 | 0.0 | 0.0 | 0.00 | 0.00 | 0.00 | 87 | 1016.0 |
| 20260906040048 | 20 | 0 | 0.0 | 0.0 | 0.00 | 0.00 | 0.00 | 86 | 1016.1 |
| 20260906034543 | 20 | 0 | 0.0 | 0.0 | 0.00 | 0.00 | 0.00 | 86 | 1016.2 |
| 20260906033054 | 21 | 0 | 0.0 | 0.0 | 0.00 | 0.00 | 0.00 | 85 | 1016.5 |
| 20260906031551 | 21 | 0 | 0.0 | 0.0 | 0.00 | 0.00 | 0.00 | 84 | 1016.6 |
| 20260906030049 | 21 | 0 | 0.0 | 1.6 | 0.00 | 0.00 | 0.00 | 84 | 1016.7 |
| 20260906024553 | 21 | 6 | 0.0 | 6.4 | 0.00 | 0.00 | 0.00 | 83 | 1016.8 |
| 20260906023050 | 21 | 0 | 0.0 | 0.0 | 0.00 | 0.00 | 0.00 | 82 | 1016.9 |
| 20260906021554 | 22 | 0 | 0.0 | 8.0 | 0.00 | 0.00 | 0.00 | 80 | 1016.9 |
| 20260906020049 | 22 | 0 | 0.0 | 0.0 | 0.00 | 0.00 | 0.00 | 78 | 1016.8 |
| 20260906014549 | 23 | 0 | 0.0 | 0.0 | 0.00 | 0.00 | 0.00 | 77 | 1016.7 |
| 20260906013047 | 23 | 0 | 0.0 | 0.0 | 0.00 | 0.00 | 0.00 | 76 | 1016.7 |
| 20260906011545 | 23 | 0 | 0.0 | 1.6 | 0.00 | 0.00 | 0.00 | 76 | 1016.5 |
| 20260906010044 | 23 | 0 | 0.0 | 1.6 | 0.00 | 0.00 | 0.00 | 74 | 1016.2 |
| 20260906004551 | 23 | 0 | 0.0 | 1.6 | 0.00 | 0.00 | 0.00 | 73 | 1016.2 |
| 20260906003047 | 23 | 142 | 0.0 | 6.4 | 0.00 | 0.00 | 0.00 | 72 | 1016.0 |
| 20260906001554 | 24 | 101 | 0.0 | 8.0 | 0.00 | 0.00 | 0.00 | 71 | 1016.0 |
| 20260906000052 | 24 | 175 | 6.4 | 16.1 | 0.00 | 0.00 | 0.00 | 70 | 1016.0 |
| 20260905234549 | 25 | 164 | 4.8 | 16.1 | 0.00 | 0.00 | 0.00 | 69 | 1015.9 |
| 20260905233044 | 25 | 137 | 4.8 | 14.5 | 0.00 | 0.00 | 0.00 | 67 | 1015.9 |
| 20260905231543 | 25 | 132 | 6.4 | 16.1 | 0.00 | 0.00 | 0.00 | 65 | 1015.9 |
| 20260905230049 | 26 | 175 | 4.8 | 14.5 | 0.00 | 0.00 | 0.00 | 63 | 1016.0 |
| 20260905224542 | 26 | 175 | 6.4 | 20.9 | 0.00 | 0.00 | 0.00 | 61 | 1015.9 |
| 20260905223054 | 26 | 195 | 6.4 | 17.7 | 0.00 | 0.00 | 0.00 | 59 | 1015.9 |
| 20260905221544 | 26 | 144 | 4.8 | 24.1 | 0.00 | 0.00 | 0.00 | 57 | 1015.8 |
| 20260905220055 | 27 | 160 | 4.8 | 16.1 | 0.00 | 0.00 | 0.00 | 54 | 1015.6 |
| 20260905214546 | 27 | 153 | 4.8 | 20.9 | 0.00 | 0.05 | 0.00 | 54 | 1015.5 |
| 20260905213054 | 27 | 171 | 11.3 | 24.1 | 0.00 | 0.05 | 0.00 | 54 | 1015.4 |
| 20260905211607 | 28 | 100 | 11.3 | 17.7 | 0.00 | 0.05 | 0.00 | 55 | 1015.3 |
| 20260905204545 | 27 | 134 | 8.0 | 16.1 | 0.00 | 0.28 | 0.00 | 59 | 1015.2 |
| 20260905203052 | 27 | 98 | 8.0 | 16.1 | 0.00 | 0.28 | 0.00 | 60 | 1015.2 |
| 20260905201552 | 27 | 96 | 6.4 | 20.9 | 0.00 | 0.28 | 0.00 | 58 | 1015.2 |
| 20260905200048 | 28 | 124 | 6.4 | 17.7 | 0.00 | 0.28 | 0.00 | 57 | 1015.3 |
| 20260905194548 | 28 | 88 | 3.2 | 17.7 | 0.00 | 0.28 | 0.00 | 56 | 1015.3 |
| 20260905193047 | 28 | 119 | 9.7 | 20.9 | 0.00 | 0.28 | 0.00 | 56 | 1015.5 |
| 20260905191546 | 27 | 175 | 9.7 | 19.3 | 0.00 | 0.28 | 0.00 | 57 | 1015.6 |
| 20260905190059 | 27 | 134 | 6.4 | 17.7 | 0.00 | 0.28 | 0.00 | 64 | 1015.8 |
| 20260905184552 | 26 | 106 | 6.4 | 16.1 | 0.00 | 0.28 | 0.00 | 68 | 1016.0 |
| 20260905183052 | 26 | 175 | 6.4 | 14.5 | 0.00 | 0.28 | 0.00 | 68 | 1016.2 |
| 20260905181551 | 26 | 72 | 1.6 | 16.1 | 0.00 | 0.28 | 0.00 | 68 | 1016.4 |
| 20260905180050 | 26 | 180 | 11.3 | 22.5 | 0.00 | 0.28 | 0.00 | 70 | 1016.6 |
| 20260905174544 | 26 | 88 | 3.2 | 17.7 | 0.00 | 0.28 | 0.00 | 72 | 1016.5 |
| 20260905173050 | 25 | 98 | 4.8 | 14.5 | 0.00 | 0.28 | 0.00 | 76 | 1016.7 |
| 20260905171551 | 23 | 0 | 3.2 | 14.5 | 0.00 | 0.28 | 0.00 | 81 | 1016.5 |
| 20260905170043 | 23 | 338 | 4.8 | 17.7 | 0.00 | 0.28 | 0.00 | 83 | 1016.8 |
| 20260905164544 | 23 | 43 | 6.4 | 11.3 | 0.00 | 0.28 | 0.00 | 84 | 1017.4 |
| 20260905163048 | 22 | 0 | 0.0 | 8.0 | 0.00 | 0.28 | 0.00 | 83 | 1017.8 |
| 20260905161545 | 22 | 0 | 0.0 | 3.2 | 0.00 | 0.28 | 0.00 | 81 | 1018.2 |
| 20260905160058 | 22 | 0 | 0.0 | 6.4 | 0.00 | 0.28 | 0.00 | 80 | 1018.4 |
| 20260905154549 | 22 | 0 | 0.0 | 0.0 | 0.00 | 0.28 | 0.00 | 81 | 1018.7 |
| 20260905153106 | 22 | 0 | 0.0 | 8.0 | 0.00 | 0.28 | 0.00 | 82 | 1019.0 |
| 20260905151552 | 22 | 199 | 8.0 | 16.1 | 0.00 | 0.28 | 0.00 | 83 | 1019.0 |
| 20260905150055 | 22 | 175 | 6.4 | 17.7 | 0.00 | 0.28 | 0.00 | 83 | 1019.0 |
| 20260905144547 | 22 | 76 | 8.0 | 22.5 | 0.00 | 0.28 | 0.00 | 82 | 1018.7 |
| 20260905143052 | 24 | 168 | 1.6 | 16.1 | 0.00 | 0.28 | 0.00 | 81 | 1018.5 |
| 20260905141557 | 24 | 0 | 0.0 | 9.7 | 0.00 | 0.28 | 0.00 | 82 | 1017.7 |
| 20260905140047 | 24 | 79 | 0.0 | 9.7 | 0.00 | 0.28 | 0.00 | 83 | 1017.8 |
| 20260905134552 | 23 | 63 | 3.2 | 16.1 | 0.00 | 0.28 | 0.00 | 82 | 1017.7 |
| 20260905133050 | 23 | 59 | 0.0 | 17.7 | 0.00 | 0.28 | 0.00 | 83 | 1017.7 |
| 20260905131557 | 23 | 58 | 8.0 | 14.5 | 0.00 | 0.28 | 0.00 | 83 | 1017.8 |
| 20260905130052 | 23 | 85 | 6.4 | 14.5 | 0.00 | 0.28 | 0.00 | 86 | 1017.7 |
| 20260905124550 | 22 | 4 | 4.8 | 12.9 | 0.00 | 0.28 | 0.00 | 90 | 1017.9 |
| 20260905123049 | 21 | 93 | 6.4 | 14.5 | 0.00 | 0.28 | 0.00 | 92 | 1017.8 |
| 20260905121554 | 20 | 89 | 0.0 | 3.2 | 0.00 | 0.28 | 0.00 | 93 | 1017.7 |
| 20260905120054 | 20 | 0 | 0.0 | 0.0 | 0.00 | 0.28 | 0.00 | 93 | 1017.4 |